createdAt,value
2018-06-04T00:02:16.901Z,15.70
2018-06-04T00:04:44.999Z,15.70
2018-06-04T00:07:13.167Z,15.60
2018-06-04T00:09:41.271Z,15.50
2018-06-04T00:12:09.408Z,15.50
2018-06-04T00:14:37.681Z,15.40
2018-06-04T00:17:05.885Z,15.40
2018-06-04T00:19:34.048Z,15.30
2018-06-04T00:22:02.234Z,15.30
2018-06-04T00:24:30.344Z,15.30
2018-06-04T00:26:58.564Z,15.40
2018-06-04T00:29:26.692Z,15.30
2018-06-04T00:31:54.812Z,15.40
2018-06-04T00:34:23.826Z,15.40
2018-06-04T00:36:52.067Z,15.50
2018-06-04T00:39:20.179Z,15.60
2018-06-04T00:41:48.304Z,15.50
2018-06-04T00:44:16.835Z,15.40
2018-06-04T00:46:50.917Z,15.30
2018-06-04T00:49:19.023Z,15.20
2018-06-04T00:51:47.147Z,15.10
2018-06-04T00:54:15.515Z,15.10
2018-06-04T00:56:43.617Z,15.10
2018-06-04T00:59:11.759Z,15.20
2018-06-04T01:01:39.895Z,15.20
2018-06-04T01:04:08.772Z,15.10
2018-06-04T01:06:39.398Z,15.10
2018-06-04T01:09:07.515Z,15.00
2018-06-04T01:11:35.651Z,14.90
2018-06-04T01:14:04.509Z,14.90
2018-06-04T01:16:39.535Z,14.90
2018-06-04T01:19:07.708Z,15.00
2018-06-04T01:21:35.827Z,15.00
2018-06-04T01:24:03.954Z,15.00
2018-06-04T01:26:32.151Z,14.90
2018-06-04T01:29:00.308Z,15.00
2018-06-04T01:31:28.418Z,15.00
2018-06-04T01:33:57.292Z,15.00
2018-06-04T01:36:25.454Z,15.00
2018-06-04T01:38:53.585Z,15.80
2018-06-04T01:41:21.697Z,14.90
2018-06-04T01:43:50.855Z,14.80
2018-06-04T01:46:26.439Z,14.80
2018-06-04T01:48:54.556Z,14.80
2018-06-04T01:51:23.551Z,14.80
2018-06-04T01:53:51.662Z,14.80
2018-06-04T01:56:19.889Z,14.80
2018-06-04T01:58:48.071Z,14.70
2018-06-04T02:01:16.281Z,14.70
2018-06-04T02:03:57.748Z,14.70
2018-06-04T02:06:27.903Z,14.70
2018-06-04T02:08:57.007Z,14.70
2018-06-04T02:11:25.129Z,14.80
2018-06-04T02:13:53.239Z,14.80
2018-06-04T02:16:21.443Z,14.70
2018-06-04T02:18:49.570Z,14.60
2018-06-04T02:21:17.974Z,14.60
2018-06-04T02:23:46.602Z,14.50
2018-06-04T02:26:29.840Z,14.60
2018-06-04T02:28:58.028Z,14.60
2018-06-04T02:31:28.984Z,14.60
2018-06-04T02:33:57.665Z,14.50
2018-06-04T02:36:25.888Z,14.50
2018-06-04T02:38:54.013Z,14.50
2018-06-04T02:41:22.126Z,14.50
2018-06-04T02:43:50.257Z,14.60
2018-06-04T02:46:31.423Z,14.60
2018-06-04T02:49:00.623Z,14.70
2018-06-04T02:51:28.730Z,14.70
2018-06-04T02:53:58.075Z,14.60
2018-06-04T02:56:27.431Z,14.50
2018-06-04T02:58:56.247Z,14.50
2018-06-04T03:01:24.365Z,14.30
2018-06-04T03:03:52.506Z,14.20
2018-06-04T03:06:21.470Z,14.10
2018-06-04T03:08:49.627Z,14.10
2018-06-04T03:11:18.657Z,14.10
2018-06-04T03:13:46.794Z,14.10
2018-06-04T03:16:14.948Z,14.20
2018-06-04T03:18:43.079Z,14.20
2018-06-04T03:21:11.959Z,14.20
2018-06-04T03:23:40.075Z,14.20
2018-06-04T03:26:08.622Z,14.20
2018-06-04T03:28:36.744Z,14.20
2018-06-04T03:31:05.937Z,14.30
2018-06-04T03:33:34.873Z,14.20
2018-06-04T03:36:09.613Z,14.30
2018-06-04T03:38:37.798Z,14.20
2018-06-04T03:41:11.596Z,14.20
2018-06-04T03:43:39.782Z,14.30
2018-06-04T03:46:08.955Z,14.40
2018-06-04T03:48:39.195Z,14.40
2018-06-04T03:51:07.345Z,14.50
2018-06-04T03:53:35.471Z,14.50
2018-06-04T03:56:04.532Z,14.60
2018-06-04T03:58:33.580Z,14.50
2018-06-04T04:01:02.455Z,14.50
2018-06-04T04:03:30.576Z,14.40
2018-06-04T04:05:59.679Z,14.50
2018-06-04T04:08:27.807Z,14.50
2018-06-04T04:10:59.449Z,14.60
2018-06-04T04:13:27.951Z,14.60
2018-06-04T04:15:56.064Z,14.70
2018-06-04T04:18:24.186Z,14.80
2018-06-04T04:20:52.325Z,15.00
2018-06-04T04:23:20.469Z,15.10
2018-06-04T04:25:49.256Z,15.10
2018-06-04T04:28:17.363Z,15.20
2018-06-04T04:30:46.682Z,15.30
2018-06-04T04:33:15.198Z,15.40
2018-06-04T04:35:43.677Z,15.50
2018-06-04T04:38:14.054Z,15.50
2018-06-04T04:40:42.178Z,15.40
2018-06-04T04:43:10.337Z,15.50
2018-06-04T04:45:40.916Z,15.50
2018-06-04T04:48:09.578Z,15.70
2018-06-04T04:50:37.713Z,15.80
2018-06-04T04:53:05.818Z,15.80
2018-06-04T04:55:34.211Z,15.80
2018-06-04T04:58:02.310Z,15.90
2018-06-04T05:00:32.543Z,16.00
2018-06-04T05:03:02.237Z,16.20
2018-06-04T05:05:30.402Z,16.20
2018-06-04T05:08:05.745Z,16.30
2018-06-04T05:10:33.854Z,16.30
2018-06-04T05:13:02.985Z,16.30
2018-06-04T05:15:31.098Z,16.50
2018-06-04T05:18:02.712Z,16.50
2018-06-04T05:20:30.842Z,16.70
2018-06-04T05:22:58.997Z,16.80
2018-06-04T05:25:28.122Z,17.00
2018-06-04T05:27:57.108Z,17.00
2018-06-04T05:30:25.276Z,17.20
2018-06-04T05:32:53.408Z,17.20
2018-06-04T05:35:21.517Z,17.40
2018-06-04T05:37:49.713Z,17.50
2018-06-04T05:40:20.805Z,17.60
2018-06-04T05:42:50.623Z,17.70
2018-06-04T05:45:18.739Z,17.90
2018-06-04T05:47:47.686Z,18.00
2018-06-04T05:50:15.798Z,18.10
2018-06-04T05:52:44.696Z,18.10
2018-06-04T05:55:16.098Z,18.30
2018-06-04T05:57:54.367Z,18.30
2018-06-04T06:00:23.172Z,18.50
2018-06-04T06:02:57.723Z,18.50
2018-06-04T06:05:25.841Z,18.80
2018-06-04T06:07:59.498Z,18.90
2018-06-04T06:10:28.974Z,19.00
2018-06-04T06:12:59.145Z,19.00
2018-06-04T06:15:27.855Z,19.10
2018-06-04T06:17:56.550Z,19.20
2018-06-04T06:20:25.793Z,19.20
2018-06-04T06:22:54.249Z,19.30
2018-06-04T06:25:23.232Z,19.30
2018-06-04T06:27:52.078Z,19.40
2018-06-04T06:30:21.025Z,19.50
2018-06-04T06:32:49.140Z,19.60
2018-06-04T06:35:18.248Z,19.80
2018-06-04T06:37:47.244Z,19.80
2018-06-04T06:40:18.495Z,19.90
2018-06-04T06:42:47.533Z,20.00
2018-06-04T06:45:16.950Z,20.00
2018-06-04T06:47:49.088Z,20.10
2018-06-04T06:50:17.493Z,20.30
2018-06-04T06:52:46.678Z,20.40
2018-06-04T06:55:17.209Z,20.50
2018-06-04T06:57:53.999Z,20.50
2018-06-04T07:00:25.436Z,20.60
2018-06-04T07:02:54.774Z,20.60
2018-06-04T07:05:23.731Z,20.60
2018-06-04T07:07:54.025Z,20.60
2018-06-04T07:10:22.535Z,20.70
2018-06-04T07:12:51.814Z,20.80
2018-06-04T07:15:21.565Z,20.80
2018-06-04T07:17:50.536Z,20.90
2018-06-04T07:20:18.809Z,20.90
2018-06-04T07:22:50.349Z,21.00
2018-06-04T07:25:19.522Z,21.10
2018-06-04T07:27:48.504Z,21.20
2018-06-04T07:30:19.080Z,21.30
2018-06-04T07:32:51.493Z,21.40
2018-06-04T07:35:21.932Z,21.60
2018-06-04T07:37:51.386Z,21.70
2018-06-04T07:40:21.258Z,21.70
2018-06-04T07:42:51.396Z,21.90
2018-06-04T07:45:21.960Z,22.00
2018-06-04T07:47:50.993Z,22.10
2018-06-04T07:50:23.526Z,22.20
2018-06-04T07:52:52.929Z,22.30
2018-06-04T07:55:21.642Z,22.30
2018-06-04T07:57:50.744Z,22.30
2018-06-04T08:00:21.942Z,22.30
2018-06-04T08:02:50.124Z,22.50
2018-06-04T08:05:19.071Z,22.40
2018-06-04T08:07:48.037Z,22.30
2018-06-04T08:10:16.219Z,22.70
2018-06-04T08:12:44.511Z,22.50
2018-06-04T08:15:14.215Z,22.60
2018-06-04T08:20:16.866Z,22.80
2018-06-04T08:22:45.007Z,23.00
2018-06-04T08:25:15.571Z,23.10
2018-06-04T08:27:49.078Z,23.20
2018-06-04T08:30:21.903Z,23.30
2018-06-04T08:32:52.110Z,23.30
2018-06-04T08:35:25.110Z,23.40
2018-06-04T08:37:56.840Z,23.40
2018-06-04T08:42:56.167Z,23.40
2018-06-04T08:45:25.056Z,23.40
2018-06-04T08:47:53.738Z,23.60
2018-06-04T08:50:21.996Z,23.60
2018-06-04T08:52:52.108Z,23.60
2018-06-04T08:55:20.224Z,23.70
2018-06-04T08:57:49.425Z,23.70
2018-06-04T09:00:17.742Z,23.80
2018-06-04T09:02:45.861Z,24.00
2018-06-04T09:05:13.984Z,24.20
2018-06-04T09:07:42.118Z,24.30
2018-06-04T09:10:10.229Z,24.30
2018-06-04T09:12:38.349Z,24.40
2018-06-04T09:15:07.684Z,24.40
2018-06-04T09:17:35.814Z,24.40
2018-06-04T09:20:03.944Z,24.50
2018-06-04T09:22:32.333Z,24.50
2018-06-04T09:25:01.245Z,24.80
2018-06-04T09:27:33.850Z,24.80
2018-06-04T09:30:02.020Z,24.90
2018-06-04T09:32:32.767Z,25.10
2018-06-04T09:35:00.957Z,25.10
2018-06-04T09:37:29.229Z,25.10
2018-06-04T09:40:00.256Z,25.30
2018-06-04T09:44:58.670Z,25.70
2018-06-04T09:47:30.651Z,25.90
2018-06-04T09:50:03.355Z,26.10
2018-06-04T09:52:31.637Z,26.20
2018-06-04T09:55:02.267Z,26.30
2018-06-04T09:57:36.758Z,26.30
2018-06-04T10:00:07.747Z,26.30
2018-06-04T10:02:40.679Z,26.40
2018-06-04T10:05:10.446Z,26.50
2018-06-04T10:07:39.457Z,26.60
2018-06-04T10:10:07.794Z,26.60
2018-06-04T10:12:38.327Z,26.60
2018-06-04T10:15:09.245Z,26.80
2018-06-04T10:17:39.035Z,27.00
2018-06-04T10:20:09.025Z,27.20
2018-06-04T10:22:38.034Z,27.30
2018-06-04T10:25:09.249Z,27.20
2018-06-04T10:27:40.061Z,27.20
2018-06-04T10:30:09.688Z,27.20
2018-06-04T10:32:39.811Z,27.40
2018-06-04T10:35:08.308Z,27.50
2018-06-04T10:37:39.202Z,27.60
2018-06-04T10:40:09.018Z,27.60
2018-06-04T10:42:39.147Z,27.60
2018-06-04T10:45:09.458Z,27.70
2018-06-04T10:47:38.222Z,27.70
2018-06-04T10:50:08.675Z,27.70
2018-06-04T10:52:38.826Z,27.60
2018-06-04T10:55:12.242Z,27.60
2018-06-04T10:57:46.459Z,27.70
2018-06-04T11:00:18.829Z,27.70
2018-06-04T11:02:49.727Z,27.60
2018-06-04T11:05:26.113Z,27.60
2018-06-04T11:07:54.726Z,27.60
2018-06-04T11:10:23.981Z,27.70
2018-06-04T11:12:52.586Z,27.90
2018-06-04T11:15:23.097Z,28.00
2018-06-04T11:17:51.208Z,28.00
2018-06-04T11:20:21.377Z,28.40
2018-06-04T11:22:50.214Z,28.60
2018-06-04T11:25:19.353Z,28.70
2018-06-04T11:27:51.565Z,29.00
2018-06-04T11:30:30.543Z,29.20
2018-06-04T11:33:03.183Z,31.10
2018-06-04T11:35:40.438Z,29.50
2018-06-04T11:38:12.939Z,29.40
2018-06-04T11:40:50.008Z,29.40
2018-06-04T11:43:21.537Z,29.20
2018-06-04T11:48:25.656Z,29.20
2018-06-04T11:50:54.906Z,29.10
2018-06-04T11:53:25.692Z,29.10
2018-06-04T11:55:53.917Z,28.90
2018-06-04T11:58:22.082Z,28.70
2018-06-04T12:00:50.536Z,28.80
2018-06-04T12:03:18.680Z,28.80
2018-06-04T12:05:48.540Z,28.90
2018-06-04T12:08:17.856Z,29.00
2018-06-04T12:10:46.797Z,29.20
2018-06-04T12:13:17.828Z,29.40
2018-06-04T12:15:48.543Z,29.50
2018-06-04T12:18:16.679Z,29.70
2018-06-04T12:20:48.318Z,29.80
2018-06-04T12:23:19.580Z,30.00
2018-06-04T12:25:49.676Z,30.10
2018-06-04T12:28:18.589Z,30.20
2018-06-04T12:30:48.722Z,30.20
2018-06-04T12:33:18.377Z,30.30
2018-06-04T12:35:47.844Z,30.20
2018-06-04T12:38:17.759Z,30.10
2018-06-04T12:40:48.063Z,29.90
2018-06-04T12:43:17.726Z,29.90
2018-06-04T12:45:46.553Z,29.90
2018-06-04T12:48:17.898Z,29.80
2018-06-04T12:50:51.263Z,29.80
2018-06-04T12:53:33.556Z,29.60
2018-06-04T12:56:05.360Z,29.80
2018-06-04T12:58:43.292Z,29.90
2018-06-04T13:03:45.708Z,30.20
2018-06-04T13:06:26.530Z,30.50
2018-06-04T13:08:57.325Z,30.60
2018-06-04T13:11:26.424Z,30.80
2018-06-04T13:13:55.771Z,30.80
2018-06-04T13:16:24.898Z,30.50
2018-06-04T13:18:58.672Z,30.60
2018-06-04T13:21:34.639Z,30.90
2018-06-04T13:24:04.063Z,31.00
2018-06-04T13:27:32.072Z,31.00
2018-06-04T13:30:01.932Z,33.00
2018-06-04T13:32:31.036Z,33.00
2018-06-04T13:35:01.083Z,34.50
2018-06-04T13:37:29.227Z,36.10
2018-06-04T13:39:57.990Z,38.20
2018-06-04T13:42:30.865Z,38.20
2018-06-04T13:45:00.327Z,39.60
2018-06-04T13:47:32.251Z,40.60
2018-06-04T13:50:01.302Z,41.60
2018-06-04T13:52:32.646Z,41.60
2018-06-04T13:55:05.804Z,40.80
2018-06-04T13:57:36.697Z,40.70
2018-06-04T14:00:06.669Z,41.00
2018-06-04T14:02:34.861Z,40.80
2018-06-04T14:05:05.720Z,38.70
2018-06-04T14:07:41.180Z,38.70
2018-06-04T14:10:13.056Z,38.40
2018-06-04T14:12:43.810Z,39.80
2018-06-04T14:15:12.526Z,41.10
2018-06-04T14:17:41.819Z,41.90
2018-06-04T14:20:14.985Z,43.40
2018-06-04T14:22:43.089Z,43.30
2018-06-04T14:25:12.001Z,44.00
2018-06-04T14:27:44.502Z,43.90
2018-06-04T14:30:13.421Z,45.00
2018-06-04T14:32:44.877Z,45.50
2018-06-04T14:35:14.742Z,45.20
2018-06-04T14:37:45.306Z,45.50
2018-06-04T14:40:14.046Z,44.60
2018-06-04T14:42:43.932Z,46.10
2018-06-04T14:45:12.840Z,46.20
2018-06-04T14:47:41.088Z,46.20
2018-06-04T14:50:09.216Z,46.50
2018-06-04T14:52:38.181Z,46.50
2018-06-04T14:55:11.431Z,47.10
2018-06-04T14:57:39.715Z,47.10
2018-06-04T15:02:43.038Z,46.70
2018-06-04T15:05:11.158Z,46.40
2018-06-04T15:07:39.387Z,46.00
2018-06-04T15:10:08.220Z,46.00
2018-06-04T15:12:38.347Z,45.50
2018-06-04T15:15:06.506Z,45.50
2018-06-04T15:17:35.509Z,45.50
2018-06-04T15:20:03.674Z,44.20
2018-06-04T15:22:32.710Z,43.80
2018-06-04T15:25:00.879Z,43.70
2018-06-04T15:27:30.288Z,44.20
2018-06-04T15:29:59.304Z,44.40
2018-06-04T15:32:32.688Z,45.50
2018-06-04T15:35:00.882Z,45.50
2018-06-04T15:37:31.063Z,45.40
2018-06-04T15:39:59.903Z,45.30
2018-06-04T15:42:29.759Z,45.20
2018-06-04T15:45:00.147Z,45.10
2018-06-04T15:47:29.358Z,44.10
2018-06-04T15:49:58.311Z,44.00
2018-06-04T15:52:28.557Z,43.80
2018-06-04T15:55:00.149Z,42.50
2018-06-04T15:57:29.609Z,42.20
2018-06-04T15:59:59.735Z,42.80
2018-06-04T16:02:29.358Z,42.80
2018-06-04T16:04:57.708Z,44.00
2018-06-04T16:07:26.806Z,44.50
2018-06-04T16:09:58.084Z,43.20
2018-06-04T16:12:27.452Z,43.10
2018-06-04T16:14:57.424Z,43.10
2018-06-04T16:20:08.101Z,42.70
2018-06-04T16:22:38.422Z,42.50
2018-06-04T16:25:07.692Z,41.40
2018-06-04T16:27:39.074Z,39.40
2018-06-04T16:30:13.344Z,39.40
2018-06-04T16:32:43.701Z,40.20
2018-06-04T16:35:18.102Z,41.90
2018-06-04T16:37:48.580Z,41.90
2018-06-04T16:43:23.454Z,42.80
2018-06-04T16:45:52.182Z,42.70
2018-06-04T16:48:20.314Z,42.70
2018-06-04T16:50:57.418Z,42.40
2018-06-04T16:53:26.096Z,42.10
2018-06-04T16:55:56.489Z,42.00
2018-06-04T16:58:29.596Z,42.20
2018-06-04T17:01:01.943Z,42.40
2018-06-04T17:03:34.733Z,43.00
2018-06-04T17:06:05.017Z,43.80
2018-06-04T17:08:34.701Z,43.00
2018-06-04T17:11:02.850Z,42.20
2018-06-04T17:13:32.490Z,42.30
2018-06-04T17:16:01.466Z,42.70
2018-06-04T17:18:30.080Z,42.70
2018-06-04T17:20:58.210Z,42.60
2018-06-04T17:23:26.308Z,42.80
2018-06-04T17:25:54.804Z,41.80
2018-06-04T17:28:24.562Z,39.90
2018-06-04T17:30:52.690Z,39.80
2018-06-04T17:33:21.676Z,39.40
2018-06-04T17:35:50.065Z,38.90
2018-06-04T17:38:19.012Z,37.20
2018-06-04T17:40:47.434Z,36.40
2018-06-04T17:43:16.418Z,34.80
2018-06-04T17:45:45.421Z,33.90
2018-06-04T17:48:15.046Z,33.80
2018-06-04T17:50:44.448Z,32.20
2018-06-04T17:53:16.743Z,32.10
2018-06-04T17:55:45.726Z,31.50
2018-06-04T17:58:14.694Z,31.10
2018-06-04T18:00:43.765Z,30.70
2018-06-04T18:03:14.628Z,30.20
2018-06-04T18:05:43.656Z,29.50
2018-06-04T18:08:12.827Z,29.50
2018-06-04T18:10:44.270Z,29.30
2018-06-04T18:13:13.133Z,29.10
2018-06-04T18:15:42.224Z,29.00
2018-06-04T18:18:11.205Z,28.90
2018-06-04T18:20:39.620Z,28.70
2018-06-04T18:23:08.605Z,28.50
2018-06-04T18:25:39.786Z,28.40
2018-06-04T18:28:07.926Z,28.40
2018-06-04T18:30:38.133Z,28.10
2018-06-04T18:33:06.362Z,28.00
2018-06-04T18:35:36.182Z,27.90
2018-06-04T18:38:04.287Z,27.70
2018-06-04T18:40:33.378Z,27.60
2018-06-04T18:43:02.496Z,27.50
2018-06-04T18:45:31.386Z,27.10
2018-06-04T18:47:59.517Z,27.10
2018-06-04T18:50:27.862Z,26.90
2018-06-04T18:52:55.971Z,26.70
2018-06-04T18:55:26.593Z,26.60
2018-06-04T18:57:54.705Z,26.60
2018-06-04T19:00:24.109Z,26.50
2018-06-04T19:02:54.705Z,26.50
2018-06-04T19:05:23.028Z,26.40
2018-06-04T19:07:52.025Z,25.70
2018-06-04T19:10:22.236Z,25.30
2018-06-04T19:12:50.611Z,25.30
2018-06-04T19:15:19.505Z,24.60
2018-06-04T19:17:48.398Z,24.30
2018-06-04T19:20:17.320Z,24.10
2018-06-04T19:22:45.455Z,24.00
2018-06-04T19:25:15.024Z,23.80
2018-06-04T19:27:43.166Z,23.60
2018-06-04T19:30:12.843Z,23.30
2018-06-04T19:32:42.084Z,23.30
2018-06-04T19:35:10.942Z,23.00
2018-06-04T19:37:39.930Z,22.90
2018-06-04T19:40:08.830Z,22.70
2018-06-04T19:42:37.611Z,22.60
2018-06-04T19:45:09.452Z,22.50
2018-06-04T19:47:38.287Z,22.40
2018-06-04T19:50:06.413Z,22.20
2018-06-04T19:52:34.637Z,22.10
2018-06-04T19:55:02.750Z,22.00
2018-06-04T19:57:30.864Z,22.00
2018-06-04T19:59:59.781Z,21.70
2018-06-04T20:02:29.163Z,21.60
2018-06-04T20:04:57.314Z,21.40
2018-06-04T20:07:36.939Z,21.20
2018-06-04T20:10:07.769Z,21.10
2018-06-04T20:12:35.916Z,21.10
2018-06-04T20:15:04.230Z,21.10
2018-06-04T20:17:33.093Z,21.10
2018-06-04T20:20:03.232Z,21.10
2018-06-04T20:22:32.634Z,20.90
2018-06-04T20:25:02.091Z,20.70
2018-06-04T20:27:31.006Z,20.70
2018-06-04T20:30:01.092Z,20.50
2018-06-04T20:32:38.627Z,20.40
2018-06-04T20:35:07.969Z,20.30
2018-06-04T20:37:38.875Z,20.20
2018-06-04T20:40:10.635Z,20.00
2018-06-04T20:42:38.782Z,20.00
2018-06-04T20:45:08.666Z,19.90
2018-06-04T20:47:37.414Z,19.90
2018-06-04T20:50:06.256Z,19.80
2018-06-04T20:52:35.179Z,19.80
2018-06-04T20:55:03.630Z,19.80
2018-06-04T20:57:32.090Z,19.80
2018-06-04T21:00:05.918Z,19.70
2018-06-04T21:02:35.563Z,19.70
2018-06-04T21:05:03.692Z,19.70
2018-06-04T21:07:31.956Z,19.60
2018-06-04T21:12:38.480Z,19.40
2018-06-04T21:15:08.134Z,19.30
2018-06-04T21:17:38.805Z,19.30
2018-06-04T21:20:10.017Z,19.30
2018-06-04T21:22:43.461Z,19.30
2018-06-04T21:25:13.713Z,19.30
2018-06-04T21:27:43.302Z,19.20
2018-06-04T21:30:13.001Z,19.10
2018-06-04T21:32:42.049Z,19.00
2018-06-04T21:35:10.632Z,18.90
2018-06-04T21:37:45.099Z,18.90
2018-06-04T21:40:13.651Z,18.90
2018-06-04T21:42:42.951Z,19.00
2018-06-04T21:45:13.312Z,18.90
2018-06-04T21:47:44.105Z,18.90
2018-06-04T21:50:16.623Z,18.70
2018-06-04T21:52:46.159Z,18.60
2018-06-04T21:55:15.395Z,18.60
2018-06-04T21:57:44.480Z,18.50
2018-06-04T22:00:12.637Z,18.50
2018-06-04T22:02:41.825Z,18.40
2018-06-04T22:05:10.789Z,18.30
2018-06-04T22:07:40.395Z,18.20
2018-06-04T22:10:11.003Z,18.10
2018-06-04T22:12:40.611Z,18.00
2018-06-04T22:15:10.352Z,17.90
2018-06-04T22:17:38.591Z,18.00
2018-06-04T22:20:07.773Z,17.80
2018-06-04T22:22:37.236Z,17.80
2018-06-04T22:25:05.449Z,17.80
2018-06-04T22:27:36.883Z,17.80
2018-06-04T22:30:05.108Z,17.80
2018-06-04T22:32:34.156Z,17.80
2018-06-04T22:35:02.287Z,17.80
2018-06-04T22:37:31.543Z,17.80
2018-06-04T22:39:59.749Z,17.80
2018-06-04T22:42:28.367Z,17.80
2018-06-04T22:44:56.764Z,17.80
2018-06-04T22:47:25.329Z,17.70
2018-06-04T22:49:53.817Z,17.80
2018-06-04T22:52:22.089Z,17.60
2018-06-04T22:54:50.266Z,17.50
2018-06-04T22:57:19.241Z,17.40
2018-06-04T22:59:47.386Z,17.40
2018-06-04T23:02:16.742Z,17.20
2018-06-04T23:04:45.548Z,17.20
2018-06-04T23:07:13.707Z,17.20
2018-06-04T23:09:43.438Z,17.20
2018-06-04T23:12:12.179Z,17.00
2018-06-04T23:14:41.473Z,17.00
2018-06-04T23:17:11.896Z,16.90
2018-06-04T23:19:40.774Z,17.00
2018-06-04T23:22:12.003Z,17.00
2018-06-04T23:24:44.518Z,17.00
2018-06-04T23:27:15.033Z,17.00
2018-06-04T23:29:43.142Z,16.90
2018-06-04T23:32:12.489Z,16.80
2018-06-04T23:34:40.640Z,16.70
2018-06-04T23:37:11.654Z,16.60
2018-06-04T23:39:40.764Z,16.60
2018-06-04T23:42:10.202Z,16.70
2018-06-04T23:44:39.092Z,16.60
2018-06-04T23:47:11.672Z,16.70
2018-06-04T23:49:39.828Z,16.70
2018-06-04T23:52:08.553Z,16.80
2018-06-04T23:54:38.988Z,16.70
2018-06-04T23:57:07.290Z,16.70
2018-06-04T23:59:36.204Z,16.60
